ESOKESSB

Guest
Details From ESOK - Karlstad
To ESSB - BROMMA
Flight Number -
Tags generated
Created
Modified
Stats Distance 141 nm / 261 km
Max Altitude 11,300 ft / 3,444 m
Waypoints 3
Social Downloads 1
Likes 0
Share VATSIM

Download

Looking for another format? Having issues loading an existing format? Contact us
Advertisement - Login to hide

Notes

Basic altitude profile: - Ascent Rate: 2500ft/min - Ascent Speed: 250kts - Cruise Altitude: 35000ft - Cruise Speed: 420kts - Descent Rate: 1500ft/min - Descent Speed: 250kts Options: - Use NATs: yes - Use PACOTS: yes - Use low airways: yes - Use high airways: yes

Route

ESOK TORVA ESSB

ID Type Via Altitude Latitude Longitude Leg Dist Tot Dist Heading (true) Name
O ESOK APT - 0 ft / 0 m 59.44863˚ 13.33854˚ - 0 nm - Karlstad
TORVA FIX - 11,300 ft / 3,444 m 59.41244˚ 16.21197˚ 87 nm 87 nm 90° / 93° -
O ESSB APT - 0 ft / 0 m 59.35439˚ 17.94160˚ 53 nm 140 nm 93° / 95° BROMMA

Altitude Profile

Advertisement - Login to hide

ESOK

Details ICAO ESOK (KSD)
Name Karlstad
Region Sweden
Timezone Europe/Stockholm (UTC+1.0)
Stats Elevation 352 ft / 107 m (AMSL)
Location 59.448625° 13.338536°
Runways 2
Magnetic Variation 4.254° E

METAR

ESOK 122120Z 27004KT CAVOK M08/M09 Q0997

Decode

TAF

Not found

Departure Runways

ID Width Length Bearing (true) Bearing (mag) Surface Threshold Offset Overrun Length
03 148 ft / 45 m 8,239 ft / 2,511 m 25.61° 21.36° Asphalt 0 ft / 0 m 100 ft / 30 m
03L 170 ft / 52 m 1,833 ft / 559 m 26.12° 21.87° Dirt 0 ft / 0 m 0 ft / 0 m
21 148 ft / 45 m 8,239 ft / 2,511 m 205.63° 201.38° Asphalt 0 ft / 0 m 100 ft / 30 m
21R 170 ft / 52 m 1,833 ft / 559 m 206.12° 201.87° Dirt 0 ft / 0 m 0 ft / 0 m

ESSB

Details ICAO ESSB (BMA)
Name BROMMA
Region Sweden
Timezone Europe/Stockholm (UTC+1.0)
Stats Elevation 47 ft / 14 m (AMSL)
Location 59.354389° 17.941604°
Runways 1
Magnetic Variation 6.049° E

METAR

ESSB 122120Z AUTO 28010KT 9999 BKN010/// M02/M04 Q0994

Decode

TAF

Not found

Destination Runways

ID Width Length Bearing (true) Bearing (mag) Surface Threshold Offset Overrun Length
12 148 ft / 45 m 6,201 ft / 1,890 m 125.06° 119.01° Asphalt 381 ft / 116 m 0 ft / 0 m
30 148 ft / 45 m 6,201 ft / 1,890 m 305.09° 299.04° Asphalt 361 ft / 110 m 0 ft / 0 m

Approach Navaids

Runway Type Ident Frequency Range Bearing (true) Bearing (mag) Slope Elevation
12 Localiser SB 110.30 MHz 18 nm / 33 km 125.06° 119.01° - 40 ft / 12 m (AMSL)
12 Glidescope SB 110.30 MHz 10 nm / 19 km 125.07° 119.02° 3.50° 45 ft / 14 m (AMSL)
30 Localiser SBA 109.70 MHz 18 nm / 33 km 305.04° 298.99° - 45 ft / 14 m (AMSL)
30 Glidescope SBA 109.70 MHz 10 nm / 19 km 305.07° 299.02° 3.50° 40 ft / 12 m (AMSL)